createdAt,value
2022-12-09T00:00:16.367Z,6.70
2022-12-09T00:02:43.870Z,6.80
2022-12-09T00:05:11.707Z,6.70
2022-12-09T00:07:39.096Z,8.32
2022-12-09T00:10:07.836Z,6.53
2022-12-09T00:12:35.344Z,7.30
2022-12-09T00:15:02.916Z,6.03
2022-12-09T00:17:31.380Z,7.60
2022-12-09T00:19:58.728Z,6.95
2022-12-09T00:22:27.874Z,6.00
2022-12-09T00:24:55.339Z,6.53
2022-12-09T00:27:22.636Z,7.30
2022-12-09T00:29:49.945Z,6.50
2022-12-09T00:32:17.533Z,6.82
2022-12-09T00:34:44.938Z,7.35
2022-12-09T00:37:12.435Z,6.63
2022-12-09T00:39:39.750Z,7.35
2022-12-09T00:42:07.011Z,6.53
2022-12-09T00:44:34.310Z,6.88
2022-12-09T00:47:01.611Z,7.18
2022-12-09T00:49:28.894Z,7.45
2022-12-09T00:51:56.160Z,7.28
2022-12-09T00:54:23.504Z,8.68
2022-12-09T00:56:50.720Z,7.43
2022-12-09T00:59:18.133Z,7.45
2022-12-09T01:01:45.421Z,7.65
2022-12-09T01:04:12.745Z,7.13
2022-12-09T01:06:40.337Z,7.45
2022-12-09T01:09:07.896Z,7.38
2022-12-09T01:11:35.700Z,7.78
2022-12-09T01:14:04.162Z,6.85
2022-12-09T01:16:33.761Z,7.68
2022-12-09T01:19:04.368Z,7.70
2022-12-09T01:21:33.231Z,7.25
2022-12-09T01:24:01.237Z,7.18
2022-12-09T01:26:28.641Z,7.10
2022-12-09T01:28:57.519Z,7.13
2022-12-09T01:31:26.028Z,7.45
2022-12-09T01:33:56.148Z,7.63
2022-12-09T01:36:26.914Z,8.77
2022-12-09T01:38:54.292Z,7.38
2022-12-09T01:41:22.733Z,7.70
2022-12-09T01:44:08.837Z,7.75
2022-12-09T01:46:36.629Z,7.63
2022-12-09T01:49:04.421Z,8.00
2022-12-09T01:51:32.794Z,7.78
2022-12-09T01:54:00.886Z,7.55
2022-12-09T01:56:34.978Z,8.07
2022-12-09T01:59:14.586Z,7.60
2022-12-09T02:01:44.423Z,8.43
2022-12-09T02:04:11.962Z,8.18
2022-12-09T02:06:39.926Z,8.30
2022-12-09T02:09:08.097Z,7.95
2022-12-09T02:11:55.720Z,8.27
2022-12-09T02:14:31.686Z,8.27
2022-12-09T02:16:59.140Z,8.55
2022-12-09T02:20:01.604Z,8.15
2022-12-09T02:22:48.254Z,8.23
2022-12-09T02:25:26.672Z,8.70
2022-12-09T02:27:57.062Z,9.20
2022-12-09T02:30:34.643Z,8.63
2022-12-09T02:33:20.771Z,8.75
2022-12-09T02:36:07.779Z,9.15
2022-12-09T02:38:39.506Z,8.55
2022-12-09T02:41:21.315Z,9.70
2022-12-09T02:44:01.006Z,10.15
2022-12-09T02:46:29.376Z,9.60
2022-12-09T02:48:59.293Z,10.00
2022-12-09T02:51:30.863Z,9.48
2022-12-09T02:54:08.965Z,9.95
2022-12-09T02:56:37.310Z,10.57
2022-12-09T02:59:04.804Z,9.70
2022-12-09T03:01:52.298Z,8.82
2022-12-09T03:04:24.124Z,9.55
2022-12-09T03:06:53.811Z,9.85
2022-12-09T03:09:27.386Z,8.27
2022-12-09T03:11:59.519Z,8.98
2022-12-09T03:14:35.626Z,9.60
2022-12-09T03:17:13.878Z,9.35
2022-12-09T03:20:18.935Z,8.82
2022-12-09T03:22:48.358Z,9.50
2022-12-09T03:25:22.007Z,9.50
2022-12-09T03:27:56.543Z,10.18
2022-12-09T03:30:24.059Z,10.93
2022-12-09T03:32:53.354Z,9.50
2022-12-09T03:35:46.914Z,9.57
2022-12-09T03:38:19.478Z,10.15
2022-12-09T03:40:53.930Z,9.80
2022-12-09T03:43:27.875Z,11.55
2022-12-09T03:45:57.503Z,8.90
2022-12-09T03:48:25.559Z,10.50
2022-12-09T03:51:16.594Z,11.52
2022-12-09T03:53:50.921Z,9.68
2022-12-09T03:56:23.028Z,11.73
2022-12-09T03:58:53.876Z,9.63
2022-12-09T04:01:23.649Z,9.50
2022-12-09T04:03:55.117Z,10.75
2022-12-09T04:06:23.340Z,9.02
2022-12-09T04:08:50.952Z,10.68
2022-12-09T04:11:18.448Z,9.55
2022-12-09T04:13:45.743Z,10.07
2022-12-09T04:16:13.325Z,10.98
2022-12-09T04:18:40.912Z,10.43
2022-12-09T04:21:09.944Z,9.90
2022-12-09T04:23:42.494Z,9.88
2022-12-09T04:26:15.618Z,10.98
2022-12-09T04:28:43.374Z,11.13
2022-12-09T04:31:12.828Z,12.85
2022-12-09T04:33:41.099Z,13.18
2022-12-09T04:36:12.438Z,11.82
2022-12-09T04:38:40.851Z,12.25
2022-12-09T04:41:08.748Z,12.35
2022-12-09T04:43:36.417Z,11.75
2022-12-09T04:46:06.554Z,12.05
2022-12-09T04:48:34.301Z,11.38
2022-12-09T04:51:02.029Z,10.57
2022-12-09T04:53:29.860Z,11.40
2022-12-09T04:56:01.217Z,10.90
2022-12-09T04:58:29.209Z,11.15
2022-12-09T05:00:57.400Z,10.27
2022-12-09T05:03:25.474Z,10.10
2022-12-09T05:05:53.270Z,11.00
2022-12-09T05:08:21.141Z,11.88
2022-12-09T05:10:49.992Z,10.50
2022-12-09T05:13:17.776Z,11.60
2022-12-09T05:15:45.167Z,11.02
2022-12-09T05:18:12.666Z,10.63
2022-12-09T05:20:40.744Z,11.75
2022-12-09T05:23:09.871Z,12.30
2022-12-09T05:25:37.887Z,11.70
2022-12-09T05:28:05.251Z,12.57
2022-12-09T05:30:32.579Z,11.23
2022-12-09T05:32:59.987Z,11.00
2022-12-09T05:35:27.371Z,11.13
2022-12-09T05:37:54.881Z,12.20
2022-12-09T05:40:22.970Z,13.25
2022-12-09T05:42:50.694Z,14.77
2022-12-09T05:45:18.064Z,15.32
2022-12-09T05:47:45.607Z,15.20
2022-12-09T05:50:13.737Z,15.07
2022-12-09T05:52:41.476Z,16.42
2022-12-09T05:55:10.386Z,18.67
2022-12-09T05:57:38.005Z,14.15
2022-12-09T06:00:07.949Z,16.10
2022-12-09T06:02:35.877Z,15.75
2022-12-09T06:05:04.013Z,16.45
2022-12-09T06:07:31.994Z,16.25
2022-12-09T06:09:59.532Z,16.60
2022-12-09T06:12:27.410Z,16.23
2022-12-09T06:14:54.974Z,17.70
2022-12-09T06:17:22.370Z,17.08
2022-12-09T06:19:49.887Z,15.25
2022-12-09T06:22:17.417Z,14.35
2022-12-09T06:24:45.030Z,15.80
2022-12-09T06:27:12.352Z,15.60
2022-12-09T06:29:39.694Z,15.32
2022-12-09T06:32:07.094Z,15.50
2022-12-09T06:34:34.994Z,16.30
2022-12-09T06:37:02.763Z,15.20
2022-12-09T06:39:30.248Z,16.13
2022-12-09T06:41:57.819Z,13.88
2022-12-09T06:44:25.246Z,15.25
2022-12-09T06:46:53.017Z,13.23
2022-12-09T06:49:20.705Z,13.60
2022-12-09T06:51:48.065Z,14.63
2022-12-09T06:54:16.099Z,13.70
2022-12-09T06:56:43.644Z,14.15
2022-12-09T06:59:11.867Z,13.65
2022-12-09T07:01:39.771Z,15.13
2022-12-09T07:04:07.897Z,13.90
2022-12-09T07:06:38.743Z,14.20
2022-12-09T07:09:09.985Z,13.95
2022-12-09T07:11:38.501Z,15.50
2022-12-09T07:14:06.906Z,15.75
2022-12-09T07:16:35.298Z,13.60
2022-12-09T07:19:03.847Z,16.38
2022-12-09T07:21:31.635Z,14.45
2022-12-09T07:24:03.922Z,16.77
2022-12-09T07:26:33.622Z,15.43
2022-12-09T07:29:06.164Z,16.85
2022-12-09T07:31:34.569Z,15.38
2022-12-09T07:34:03.105Z,16.45
2022-12-09T07:36:32.195Z,15.25
2022-12-09T07:39:02.341Z,14.73
2022-12-09T07:41:29.855Z,16.02
2022-12-09T07:43:57.993Z,15.25
2022-12-09T07:46:29.071Z,14.50
2022-12-09T07:48:58.277Z,14.23
2022-12-09T07:51:26.137Z,15.52
2022-12-09T07:53:54.194Z,15.57
2022-12-09T07:56:23.215Z,16.08
2022-12-09T07:58:53.508Z,15.77
2022-12-09T08:01:25.993Z,14.25
2022-12-09T08:03:54.465Z,13.98
2022-12-09T08:06:24.772Z,14.20
2022-12-09T08:08:53.234Z,14.93
2022-12-09T08:11:27.743Z,13.63
2022-12-09T08:14:05.648Z,14.80
2022-12-09T08:16:36.845Z,14.52
2022-12-09T08:19:04.642Z,14.13
2022-12-09T08:21:33.470Z,13.15
2022-12-09T08:24:03.526Z,12.95
2022-12-09T08:26:32.568Z,12.48
2022-12-09T08:29:00.802Z,13.35
2022-12-09T08:31:29.122Z,12.35
2022-12-09T08:33:57.246Z,12.85
2022-12-09T08:36:28.270Z,14.10
2022-12-09T08:38:58.935Z,13.55
2022-12-09T08:41:39.068Z,14.40
2022-12-09T08:44:12.363Z,14.40
2022-12-09T08:46:42.890Z,13.10
2022-12-09T08:49:11.704Z,16.80
2022-12-09T08:51:39.686Z,15.38
2022-12-09T08:54:07.751Z,18.77
2022-12-09T08:56:35.419Z,14.73
2022-12-09T08:59:03.748Z,17.13
2022-12-09T09:01:34.874Z,15.68
2022-12-09T09:04:06.646Z,15.55
2022-12-09T09:06:34.982Z,15.80
2022-12-09T09:09:03.105Z,14.30
2022-12-09T09:11:31.645Z,15.18
2022-12-09T09:13:59.505Z,15.38
2022-12-09T09:16:28.261Z,18.50
2022-12-09T09:18:56.418Z,17.38
2022-12-09T09:21:25.079Z,15.63
2022-12-09T09:23:53.336Z,15.00
2022-12-09T09:26:23.854Z,20.05
2022-12-09T09:28:51.842Z,21.40
2022-12-09T09:31:22.170Z,18.05
2022-12-09T09:33:50.772Z,17.83
2022-12-09T09:36:22.603Z,19.52
2022-12-09T09:38:52.310Z,18.52
2022-12-09T09:41:48.098Z,18.02
2022-12-09T09:44:36.126Z,19.90
2022-12-09T09:47:14.974Z,19.10
2022-12-09T09:49:52.525Z,17.30
2022-12-09T09:52:23.985Z,16.45
2022-12-09T09:54:54.848Z,17.05
2022-12-09T09:57:28.412Z,16.88
2022-12-09T10:00:21.965Z,15.85
2022-12-09T10:03:10.293Z,16.90
2022-12-09T10:05:50.886Z,19.15
2022-12-09T10:08:40.527Z,16.92
2022-12-09T10:11:31.816Z,18.65
2022-12-09T10:14:17.363Z,19.83
2022-12-09T10:19:49.450Z,22.00
2022-12-09T10:22:32.170Z,17.77
2022-12-09T10:25:08.115Z,22.30
2022-12-09T10:27:45.920Z,23.92
2022-12-09T10:30:17.757Z,26.70
2022-12-09T10:32:46.615Z,20.88
2022-12-09T10:35:20.676Z,19.58
2022-12-09T10:37:49.972Z,22.55
2022-12-09T10:40:46.913Z,18.52
2022-12-09T10:43:35.704Z,19.42
2022-12-09T10:46:18.009Z,20.23
2022-12-09T10:48:49.521Z,20.30
2022-12-09T10:51:24.881Z,21.48
2022-12-09T10:54:19.313Z,17.40
2022-12-09T10:57:22.875Z,21.25
2022-12-09T11:00:08.015Z,19.63
2022-12-09T11:02:35.981Z,18.02
2022-12-09T11:05:24.681Z,19.02
2022-12-09T11:07:56.154Z,19.50
2022-12-09T11:10:26.758Z,18.58
2022-12-09T11:13:07.464Z,16.90
2022-12-09T11:15:50.427Z,19.70
2022-12-09T11:18:32.960Z,19.52
2022-12-09T11:21:03.141Z,21.00
2022-12-09T11:23:30.980Z,24.27
2022-12-09T11:26:01.863Z,20.83
2022-12-09T11:28:40.468Z,18.55
2022-12-09T11:31:35.413Z,17.50
2022-12-09T11:34:16.328Z,15.48
2022-12-09T11:36:49.830Z,16.80
2022-12-09T11:39:37.560Z,16.38
2022-12-09T11:42:19.199Z,17.35
2022-12-09T11:44:52.368Z,15.80
2022-12-09T11:48:21.536Z,16.88
2022-12-09T11:50:32.744Z,18.75
2022-12-09T11:53:12.449Z,22.65
2022-12-09T11:55:49.343Z,17.52
2022-12-09T11:58:22.000Z,20.77
2022-12-09T12:01:02.769Z,16.77
2022-12-09T12:03:57.042Z,20.90
2022-12-09T12:06:42.407Z,18.67
2022-12-09T12:09:18.830Z,17.40
2022-12-09T12:11:53.579Z,19.40
2022-12-09T12:16:53.285Z,16.65
2022-12-09T12:19:38.584Z,15.00
2022-12-09T12:22:27.266Z,14.70
2022-12-09T12:25:31.851Z,17.77
2022-12-09T12:28:30.014Z,15.90
2022-12-09T12:31:06.043Z,16.95
2022-12-09T12:34:15.962Z,16.08
2022-12-09T12:37:05.023Z,15.52
2022-12-09T12:39:44.206Z,13.02
2022-12-09T12:42:19.952Z,13.60
2022-12-09T12:45:31.805Z,14.05
2022-12-09T12:48:04.479Z,14.18
2022-12-09T12:50:56.278Z,12.85
2022-12-09T12:53:39.611Z,18.77
2022-12-09T12:56:19.261Z,16.25
2022-12-09T12:59:14.820Z,13.95
2022-12-09T13:02:22.061Z,14.40
2022-12-09T13:04:57.735Z,15.65
2022-12-09T13:07:38.342Z,16.67
2022-12-09T13:10:14.182Z,14.25
2022-12-09T13:13:01.591Z,16.15
2022-12-09T13:15:35.984Z,13.73
2022-12-09T13:18:33.576Z,17.38
2022-12-09T13:21:03.714Z,14.85
2022-12-09T13:23:39.945Z,12.68
2022-12-09T13:26:21.019Z,13.50
2022-12-09T13:29:23.675Z,12.73
2022-12-09T13:32:02.001Z,15.45
2022-12-09T13:34:38.981Z,14.45
2022-12-09T13:37:26.227Z,13.85
2022-12-09T13:39:58.338Z,13.15
2022-12-09T13:42:47.606Z,14.25
2022-12-09T13:45:45.131Z,13.25
2022-12-09T13:48:16.949Z,12.90
2022-12-09T13:50:57.564Z,14.50
2022-12-09T13:53:32.587Z,13.40
2022-12-09T13:56:07.528Z,13.35
2022-12-09T13:58:37.763Z,11.65
2022-12-09T14:01:10.975Z,13.75
2022-12-09T14:04:01.471Z,12.07
2022-12-09T14:06:52.012Z,14.45
2022-12-09T14:09:38.029Z,11.55
2022-12-09T14:12:09.906Z,12.05
2022-12-09T14:14:48.578Z,16.27
2022-12-09T14:17:28.819Z,15.25
2022-12-09T14:20:17.873Z,12.40
2022-12-09T14:23:06.550Z,15.70
2022-12-09T14:25:33.892Z,12.60
2022-12-09T14:28:10.285Z,12.60
2022-12-09T14:30:49.196Z,11.63
2022-12-09T14:33:24.567Z,11.23
2022-12-09T14:35:56.126Z,11.90
2022-12-09T14:38:27.095Z,12.45
2022-12-09T14:41:12.554Z,12.45
2022-12-09T14:43:39.869Z,13.18
2022-12-09T14:46:31.087Z,13.43
2022-12-09T14:49:03.027Z,11.73
2022-12-09T14:51:35.278Z,11.02
2022-12-09T14:54:14.695Z,11.48
2022-12-09T14:56:51.205Z,12.35
2022-12-09T14:59:21.892Z,10.85
2022-12-09T15:01:56.835Z,13.57
2022-12-09T15:04:33.798Z,11.38
2022-12-09T15:07:27.473Z,11.45
2022-12-09T15:10:04.135Z,11.65
2022-12-09T15:12:53.206Z,12.07
2022-12-09T15:15:35.729Z,13.73
2022-12-09T15:18:15.332Z,12.98
2022-12-09T15:20:48.040Z,13.35
2022-12-09T15:23:32.267Z,14.45
2022-12-09T15:26:21.462Z,13.40
2022-12-09T15:28:50.928Z,17.02
2022-12-09T15:31:21.658Z,14.63
2022-12-09T15:33:54.569Z,14.80
2022-12-09T15:36:31.058Z,15.20
2022-12-09T15:39:10.138Z,16.70
2022-12-09T15:42:02.541Z,15.13
2022-12-09T15:44:35.999Z,18.55
2022-12-09T15:47:10.317Z,16.13
2022-12-09T15:52:11.690Z,17.10
2022-12-09T15:54:43.061Z,16.48
2022-12-09T15:57:14.671Z,19.77
2022-12-09T15:59:43.804Z,18.95
2022-12-09T16:02:19.877Z,16.90
2022-12-09T16:04:49.656Z,15.57
2022-12-09T16:07:19.745Z,19.08
2022-12-09T16:10:15.124Z,17.13
2022-12-09T16:15:14.216Z,17.88
2022-12-09T16:17:56.602Z,18.08
2022-12-09T16:20:35.802Z,20.38
2022-12-09T16:23:05.742Z,19.38
2022-12-09T16:26:04.900Z,20.02
2022-12-09T16:31:49.405Z,22.30
2022-12-09T16:34:23.545Z,22.23
2022-12-09T16:36:56.180Z,22.73
2022-12-09T16:39:23.366Z,30.98
2022-12-09T16:41:53.615Z,23.48
2022-12-09T16:44:28.143Z,21.33
2022-12-09T16:47:17.847Z,24.23
2022-12-09T16:49:47.693Z,21.73
2022-12-09T16:52:21.402Z,21.88
2022-12-09T16:54:50.395Z,23.87
2022-12-09T16:57:19.616Z,20.85
2022-12-09T16:59:47.478Z,23.52
2022-12-09T17:02:39.042Z,21.90
2022-12-09T17:05:07.076Z,21.05
2022-12-09T17:07:34.406Z,21.27
2022-12-09T17:10:01.774Z,23.20
2022-12-09T17:12:29.105Z,28.65
2022-12-09T17:14:56.428Z,28.85
2022-12-09T17:17:23.697Z,24.27
2022-12-09T17:19:51.323Z,23.83
2022-12-09T17:22:18.576Z,23.00
2022-12-09T17:24:45.882Z,23.80
2022-12-09T17:27:13.201Z,23.95
2022-12-09T17:29:40.613Z,23.38
2022-12-09T17:32:07.995Z,22.02
2022-12-09T17:34:35.443Z,22.02
2022-12-09T17:37:02.747Z,22.52
2022-12-09T17:39:30.303Z,23.20
2022-12-09T17:41:57.723Z,23.33
2022-12-09T17:44:25.143Z,23.30
2022-12-09T17:46:52.691Z,23.27
2022-12-09T17:49:20.482Z,22.38
2022-12-09T17:51:48.094Z,24.13
2022-12-09T17:54:15.595Z,24.55
2022-12-09T17:56:42.987Z,24.50
2022-12-09T17:59:13.283Z,23.13
2022-12-09T18:01:41.457Z,25.13
2022-12-09T18:04:10.445Z,20.70
2022-12-09T18:09:23.930Z,25.35
2022-12-09T18:11:54.439Z,28.27
2022-12-09T18:47:22.522Z,25.80
2022-12-09T18:49:49.792Z,25.42
2022-12-09T18:52:17.104Z,29.60
2022-12-09T18:54:45.798Z,26.83
2022-12-09T18:57:13.687Z,26.65
2022-12-09T18:59:40.925Z,27.60
2022-12-09T19:02:11.613Z,31.08
2022-12-09T19:04:39.176Z,33.92
2022-12-09T19:07:06.520Z,32.45
2022-12-09T19:09:36.282Z,26.08
2022-12-09T19:12:44.815Z,29.05
2022-12-09T19:14:52.681Z,28.63
2022-12-09T19:17:20.410Z,41.42
2022-12-09T19:19:48.642Z,30.98
2022-12-09T19:22:15.956Z,30.55
2022-12-09T19:24:44.220Z,31.67
2022-12-09T19:27:13.315Z,31.52
2022-12-09T19:29:40.616Z,34.28
2022-12-09T19:32:29.326Z,26.75
2022-12-09T19:34:55.423Z,28.90
2022-12-09T19:37:22.699Z,28.15
2022-12-09T19:39:50.398Z,26.35
2022-12-09T19:42:19.139Z,27.65
2022-12-09T19:45:06.552Z,30.10
2022-12-09T19:47:35.547Z,25.75
2022-12-09T19:50:02.907Z,25.77
2022-12-09T19:52:30.160Z,23.92
2022-12-09T19:54:57.418Z,26.55
2022-12-09T19:57:24.711Z,23.88
2022-12-09T19:59:51.978Z,28.52
2022-12-09T20:02:19.320Z,25.10
2022-12-09T20:04:49.662Z,25.05
2022-12-09T20:07:18.322Z,28.42
2022-12-09T20:09:45.960Z,24.88
2022-12-09T20:12:13.550Z,30.25
2022-12-09T20:14:41.050Z,28.95
2022-12-09T20:17:08.364Z,28.17
2022-12-09T20:19:36.629Z,25.63
2022-12-09T20:22:04.509Z,26.63
2022-12-09T20:24:31.757Z,30.00
2022-12-09T20:26:59.616Z,25.33
2022-12-09T20:29:28.232Z,27.90
2022-12-09T20:31:57.337Z,28.58
2022-12-09T20:34:25.195Z,27.05
2022-12-09T20:36:52.719Z,28.23
2022-12-09T20:39:21.200Z,24.83
2022-12-09T20:41:48.971Z,27.70
2022-12-09T20:44:17.387Z,29.48
2022-12-09T20:46:52.890Z,28.55
2022-12-09T20:49:26.203Z,28.55
2022-12-09T20:51:54.579Z,25.67
2022-12-09T20:54:22.257Z,29.13
2022-12-09T20:56:49.635Z,26.65
2022-12-09T20:59:17.041Z,25.10
2022-12-09T21:01:47.035Z,26.17
2022-12-09T21:04:15.074Z,27.90
2022-12-09T21:06:42.375Z,27.30
2022-12-09T21:09:14.655Z,27.80
2022-12-09T21:11:42.001Z,29.10
2022-12-09T21:14:10.001Z,27.25
2022-12-09T21:16:42.480Z,29.10
2022-12-09T21:19:14.166Z,27.50
2022-12-09T21:21:45.220Z,27.02
2022-12-09T21:24:13.427Z,32.40
2022-12-09T21:26:40.985Z,34.10
2022-12-09T21:29:10.095Z,39.22
2022-12-09T21:31:40.878Z,30.35
2022-12-09T21:34:10.202Z,29.73
2022-12-09T21:36:40.829Z,34.17
2022-12-09T21:39:09.114Z,27.50
2022-12-09T21:41:37.739Z,31.25
2022-12-09T21:44:06.182Z,30.42
2022-12-09T21:46:36.842Z,27.10
2022-12-09T21:49:06.013Z,29.20
2022-12-09T21:51:34.792Z,27.80
2022-12-09T21:54:02.890Z,28.48
2022-12-09T21:56:32.796Z,27.35
2022-12-09T21:59:00.947Z,26.85
2022-12-09T22:01:31.617Z,26.33
2022-12-09T22:04:00.566Z,24.27
2022-12-09T22:06:28.808Z,26.98
2022-12-09T22:08:57.920Z,26.90
2022-12-09T22:11:27.774Z,24.70
2022-12-09T22:13:58.238Z,23.42
2022-12-09T22:16:32.039Z,25.90
2022-12-09T22:19:01.333Z,26.77
2022-12-09T22:21:31.301Z,26.20
2022-12-09T22:24:01.757Z,26.25
2022-12-09T22:26:29.796Z,26.63
2022-12-09T22:28:59.133Z,25.42
2022-12-09T22:31:37.299Z,24.27
2022-12-09T22:34:16.590Z,26.80
2022-12-09T22:36:44.695Z,29.75
2022-12-09T22:39:17.144Z,27.98
2022-12-09T22:41:46.039Z,24.85
2022-12-09T22:44:15.116Z,27.25
2022-12-09T22:46:42.469Z,26.65
2022-12-09T22:49:13.472Z,30.10
2022-12-09T22:51:41.643Z,27.92
2022-12-09T22:54:09.800Z,28.42
2022-12-09T22:56:38.850Z,27.17
2022-12-09T22:59:06.406Z,27.92
2022-12-09T23:01:37.198Z,28.73
2022-12-09T23:04:05.926Z,27.33
2022-12-09T23:06:35.792Z,27.90
2022-12-09T23:09:03.573Z,28.83
2022-12-09T23:11:30.835Z,31.40
2022-12-09T23:13:59.950Z,30.23
2022-12-09T23:16:28.064Z,29.48
2022-12-09T23:18:57.520Z,28.17
2022-12-09T23:21:33.658Z,29.08
2022-12-09T23:24:07.492Z,26.20
2022-12-09T23:26:39.491Z,30.73
2022-12-09T23:29:11.604Z,30.67
2022-12-09T23:31:39.265Z,27.98
2022-12-09T23:34:08.518Z,31.13
2022-12-09T23:36:38.474Z,31.25
2022-12-09T23:39:11.979Z,29.35
2022-12-09T23:41:40.922Z,28.20
2022-12-09T23:44:13.351Z,29.80
2022-12-09T23:46:40.918Z,30.55
2022-12-09T23:49:08.807Z,32.00
2022-12-09T23:51:39.378Z,30.70
2022-12-09T23:54:08.183Z,30.88
2022-12-09T23:56:44.075Z,29.25
2022-12-09T23:59:14.204Z,31.20
